createdAt,value
2023-02-01T00:01:58.437Z,46.36
2023-02-01T00:07:00.475Z,46.16
2023-02-01T00:12:02.585Z,45.83
2023-02-01T00:17:05.204Z,45.66
2023-02-01T00:22:07.296Z,45.25
2023-02-01T00:27:09.483Z,45.73
2023-02-01T00:32:11.480Z,45.93
2023-02-01T00:37:13.477Z,45.06
2023-02-01T00:42:16.068Z,45.77
2023-02-01T00:47:18.305Z,45.41
2023-02-01T00:52:20.233Z,46.37
2023-02-01T00:57:22.834Z,46.69
2023-02-01T01:02:27.673Z,46.79
2023-02-01T01:07:29.681Z,46.21
2023-02-01T01:12:31.572Z,46.24
2023-02-01T01:17:33.453Z,45.59
2023-02-01T01:22:35.535Z,46.22
2023-02-01T01:27:37.705Z,46.24
2023-02-01T01:32:41.309Z,47.24
2023-02-01T01:37:43.503Z,46.89
2023-02-01T01:42:45.554Z,45.84
2023-02-01T01:47:57.919Z,46.32
2023-02-01T01:53:04.148Z,45.98
2023-02-01T01:58:11.353Z,46.76
2023-02-01T02:03:22.215Z,46.32
2023-02-01T02:08:25.724Z,46.94
2023-02-01T02:13:36.294Z,46.78
2023-02-01T02:19:03.384Z,46.85
2023-02-01T02:24:23.485Z,46.91
2023-02-01T02:29:40.225Z,47.33
2023-02-01T02:34:46.542Z,46.88
2023-02-01T02:39:57.904Z,46.62
2023-02-01T02:45:09.981Z,47.73
2023-02-01T02:50:33.474Z,47.18
2023-02-01T02:55:39.298Z,47.29
2023-02-01T03:00:43.030Z,47.69
2023-02-01T03:05:47.804Z,47.34
2023-02-01T03:11:09.927Z,46.45
2023-02-01T03:16:19.839Z,46.60
2023-02-01T03:21:36.588Z,46.71
2023-02-01T03:26:44.808Z,46.97
2023-02-01T03:31:47.206Z,47.47
2023-02-01T03:37:11.418Z,47.31
2023-02-01T03:42:18.995Z,47.06
2023-02-01T03:47:31.442Z,46.75
2023-02-01T03:52:44.931Z,46.74
2023-02-01T03:57:57.856Z,47.49
2023-02-01T04:02:59.786Z,47.09
2023-02-01T04:08:02.181Z,47.60
2023-02-01T04:13:04.334Z,47.55
2023-02-01T04:18:06.435Z,47.61
2023-02-01T04:23:08.885Z,47.26
2023-02-01T04:28:10.892Z,46.90
2023-02-01T04:33:13.007Z,47.17
2023-02-01T04:38:15.329Z,46.78
2023-02-01T04:43:18.612Z,46.56
2023-02-01T04:48:23.992Z,46.72
2023-02-01T04:53:28.468Z,47.11
2023-02-01T04:58:30.512Z,47.07
2023-02-01T05:03:34.150Z,46.51
2023-02-01T05:08:38.561Z,46.51
2023-02-01T05:13:40.896Z,46.62
2023-02-01T05:18:43.052Z,46.51
2023-02-01T05:23:45.023Z,47.51
2023-02-01T05:28:47.116Z,47.27
2023-02-01T05:33:50.029Z,46.40
2023-02-01T05:38:52.011Z,46.69
2023-02-01T05:43:54.200Z,47.43
2023-02-01T05:48:57.232Z,46.93
2023-02-01T05:53:59.278Z,47.67
2023-02-01T06:04:01.837Z,47.16
2023-02-01T06:09:04.470Z,47.37
2023-02-01T06:14:05.946Z,46.90
2023-02-01T06:19:07.495Z,46.91
2023-02-01T06:24:09.746Z,46.76
2023-02-01T06:29:11.869Z,47.11
2023-02-01T06:34:13.371Z,46.40
2023-02-01T06:39:14.889Z,46.64
2023-02-01T06:44:17.104Z,46.18
2023-02-01T06:49:18.541Z,46.20
2023-02-01T06:54:20.148Z,45.75
2023-02-01T06:59:21.711Z,45.97
2023-02-01T07:04:23.169Z,46.04
2023-02-01T07:09:24.649Z,46.77
2023-02-01T07:14:26.144Z,47.08
2023-02-01T07:19:27.596Z,46.49
2023-02-01T07:24:29.055Z,46.17
2023-02-01T07:29:30.554Z,47.06
2023-02-01T07:34:31.992Z,48.82
2023-02-01T07:39:33.435Z,49.51
2023-02-01T07:44:34.921Z,49.69
2023-02-01T07:49:36.421Z,50.24
2023-02-01T07:54:37.866Z,50.74
2023-02-01T07:59:39.401Z,52.18
2023-02-01T08:04:40.910Z,52.21
2023-02-01T08:09:42.429Z,52.78
2023-02-01T08:14:44.024Z,53.42
2023-02-01T08:19:45.466Z,52.58
2023-02-01T08:24:49.142Z,52.41
2023-02-01T08:29:50.688Z,52.13
2023-02-01T08:34:52.165Z,51.99
2023-02-01T08:39:53.711Z,52.21
2023-02-01T08:44:55.226Z,52.21
2023-02-01T08:49:56.715Z,51.28
2023-02-01T08:54:58.206Z,51.82
2023-02-01T08:59:59.719Z,51.24
2023-02-01T09:05:01.217Z,51.65
2023-02-01T09:10:03.136Z,51.10
2023-02-01T09:15:05.373Z,52.15
2023-02-01T09:20:07.287Z,51.59
2023-02-01T09:25:09.261Z,51.09
2023-02-01T09:30:11.406Z,50.87
2023-02-01T09:35:12.898Z,50.05
2023-02-01T09:40:17.430Z,50.24
2023-02-01T09:45:35.043Z,49.96
2023-02-01T09:50:40.445Z,49.93
2023-02-01T09:55:44.685Z,49.89
2023-02-01T10:00:54.841Z,49.34
2023-02-01T10:06:02.081Z,49.99
2023-02-01T10:11:34.431Z,49.96
2023-02-01T10:16:52.703Z,49.76
2023-02-01T10:22:03.538Z,50.25
2023-02-01T10:27:13.932Z,48.82
2023-02-01T10:32:18.238Z,48.74
2023-02-01T10:37:28.231Z,49.16
2023-02-01T10:42:30.504Z,48.79
2023-02-01T10:47:32.034Z,48.67
2023-02-01T10:53:00.703Z,48.68
2023-02-01T10:58:04.656Z,48.83
2023-02-01T11:03:22.305Z,49.00
2023-02-01T11:08:23.971Z,48.34
2023-02-01T11:13:31.323Z,48.29
2023-02-01T11:18:37.543Z,47.89
2023-02-01T11:23:45.516Z,47.08
2023-02-01T11:29:03.850Z,44.41
2023-02-01T11:34:15.597Z,38.21
2023-02-01T11:39:30.351Z,32.19
2023-02-01T11:44:40.532Z,31.90
2023-02-01T11:49:42.030Z,28.73
2023-02-01T11:55:17.911Z,26.25
2023-02-01T12:00:19.365Z,24.44
2023-02-01T12:05:28.901Z,24.83
2023-02-01T12:10:56.345Z,24.00
2023-02-01T12:16:19.271Z,23.47
2023-02-01T12:21:31.726Z,24.78
2023-02-01T12:26:45.425Z,27.52
2023-02-01T12:32:01.994Z,31.91
2023-02-01T12:37:12.913Z,33.38
2023-02-01T12:42:24.723Z,31.43
2023-02-01T12:47:35.313Z,29.96
2023-02-01T12:52:43.447Z,27.95
2023-02-01T12:58:09.292Z,28.84
2023-02-01T13:03:40.249Z,29.76
2023-02-01T13:09:12.147Z,32.83
2023-02-01T13:14:25.724Z,35.81
2023-02-01T13:20:21.240Z,37.71
2023-02-01T13:25:49.957Z,39.31
2023-02-01T13:31:11.711Z,39.37
2023-02-01T13:36:29.026Z,39.71
2023-02-01T13:41:33.507Z,39.85
2023-02-01T13:46:44.779Z,40.58
2023-02-01T13:51:49.246Z,40.54
2023-02-01T13:56:50.747Z,39.95
2023-02-01T14:01:52.210Z,40.21
2023-02-01T14:06:54.540Z,40.37
2023-02-01T14:11:58.055Z,40.67
2023-02-01T14:17:00.343Z,40.31
2023-02-01T14:22:23.672Z,40.34
2023-02-01T14:27:36.020Z,40.14
2023-02-01T14:32:39.644Z,40.92
2023-02-01T14:37:41.166Z,41.95
2023-02-01T14:42:42.560Z,42.06
2023-02-01T14:47:44.507Z,41.62
2023-02-01T14:52:59.998Z,41.50
2023-02-01T14:58:05.591Z,41.42
2023-02-01T15:03:45.254Z,41.74
2023-02-01T15:08:46.935Z,41.92
2023-02-01T15:13:53.808Z,41.51
2023-02-01T15:19:10.998Z,41.20
2023-02-01T15:24:24.192Z,41.12
2023-02-01T15:29:26.529Z,41.31
2023-02-01T15:34:49.306Z,41.28
2023-02-01T15:40:12.575Z,40.87
2023-02-01T15:45:18.992Z,40.24
2023-02-01T15:50:23.275Z,40.56
2023-02-01T15:55:41.547Z,40.38
2023-02-01T16:01:05.933Z,40.33
2023-02-01T16:06:13.366Z,40.19
2023-02-01T16:11:39.003Z,39.99
2023-02-01T16:16:40.447Z,40.63
2023-02-01T16:21:41.878Z,40.23
2023-02-01T16:26:43.429Z,40.13
2023-02-01T16:31:45.124Z,40.28
2023-02-01T16:36:50.413Z,39.93
2023-02-01T16:41:52.004Z,40.82
2023-02-01T16:46:53.522Z,40.84
2023-02-01T16:51:59.344Z,40.94
2023-02-01T16:57:00.882Z,40.75
2023-02-01T17:02:02.405Z,40.64
2023-02-01T17:07:03.981Z,40.72
2023-02-01T17:12:06.205Z,40.31
2023-02-01T17:17:10.261Z,39.79
2023-02-01T17:22:11.768Z,39.54
2023-02-01T17:27:13.947Z,40.15
2023-02-01T17:32:24.340Z,40.00
2023-02-01T17:37:32.627Z,39.36
2023-02-01T17:42:34.208Z,39.42
2023-02-01T17:47:35.746Z,39.13
2023-02-01T17:52:37.205Z,39.70
2023-02-01T17:57:38.750Z,40.71
2023-02-01T18:02:40.877Z,40.16
2023-02-01T18:07:42.415Z,40.70
2023-02-01T18:12:44.487Z,40.36
2023-02-01T18:17:46.372Z,39.83
2023-02-01T18:22:48.214Z,40.26
2023-02-01T18:27:51.454Z,39.64
2023-02-01T18:32:52.899Z,40.30
2023-02-01T18:37:55.290Z,40.04
2023-02-01T18:42:57.088Z,40.22
2023-02-01T18:47:59.712Z,40.23
2023-02-01T18:53:03.172Z,40.21
2023-02-01T18:58:05.935Z,40.22
2023-02-01T19:03:07.452Z,40.75
2023-02-01T19:08:09.436Z,40.49
2023-02-01T19:13:12.450Z,41.25
2023-02-01T19:18:13.953Z,40.84
2023-02-01T19:23:15.413Z,41.36
2023-02-01T19:28:16.898Z,41.83
2023-02-01T19:33:18.333Z,42.08
2023-02-01T19:38:19.771Z,42.67
2023-02-01T19:43:21.246Z,41.62
2023-02-01T19:48:22.791Z,42.21
2023-02-01T19:53:24.352Z,42.58
2023-02-01T19:58:26.582Z,42.73
2023-02-01T20:03:27.651Z,43.20
2023-02-01T20:08:29.125Z,43.11
2023-02-01T20:13:30.638Z,43.13
2023-02-01T20:18:32.150Z,42.91
2023-02-01T20:23:34.777Z,43.05
2023-02-01T20:28:37.181Z,43.23
2023-02-01T20:33:38.728Z,42.65
2023-02-01T20:38:40.300Z,42.73
2023-02-01T20:43:41.808Z,41.91
2023-02-01T20:48:47.847Z,41.64
2023-02-01T20:53:49.589Z,41.74
2023-02-01T20:58:51.103Z,41.06
2023-02-01T21:03:52.539Z,41.35
2023-02-01T21:08:53.977Z,41.14
2023-02-01T21:13:55.423Z,41.05
2023-02-01T21:18:56.917Z,40.91
2023-02-01T21:23:59.194Z,41.19
2023-02-01T21:29:00.708Z,41.30
2023-02-01T21:34:02.365Z,41.71
2023-02-01T21:39:06.878Z,42.28
2023-02-01T21:44:09.490Z,42.79
2023-02-01T21:49:11.378Z,42.89
2023-02-01T21:54:13.444Z,42.88
2023-02-01T21:59:14.863Z,43.72
2023-02-01T22:04:16.405Z,43.60
2023-02-01T22:09:20.210Z,43.61
2023-02-01T22:14:22.187Z,43.70
2023-02-01T22:19:23.681Z,43.44
2023-02-01T22:24:25.157Z,42.96
2023-02-01T22:29:26.617Z,42.74
2023-02-01T22:34:28.122Z,43.39
2023-02-01T22:39:29.593Z,42.94
2023-02-01T22:44:31.039Z,42.25
2023-02-01T22:49:32.584Z,42.35
2023-02-01T22:54:34.205Z,42.13
2023-02-01T22:59:35.798Z,42.49
2023-02-01T23:04:37.324Z,42.55
2023-02-01T23:09:38.820Z,42.56
2023-02-01T23:14:40.265Z,43.23
2023-02-01T23:19:41.720Z,43.31
2023-02-01T23:24:43.204Z,43.52
2023-02-01T23:29:44.715Z,43.85
2023-02-01T23:34:46.240Z,43.86
2023-02-01T23:39:47.779Z,43.77
2023-02-01T23:44:49.223Z,43.83
2023-02-01T23:49:50.884Z,44.23
2023-02-01T23:54:52.381Z,44.33
2023-02-01T23:59:53.867Z,44.02
